createdAt,value
2022-08-17T00:00:43.678Z,1.90
2022-08-17T00:01:32.740Z,1.60
2022-08-17T00:02:30.359Z,1.60
2022-08-17T00:03:29.465Z,1.70
2022-08-17T00:04:29.623Z,1.80
2022-08-17T00:05:29.145Z,1.70
2022-08-17T00:06:29.627Z,1.70
2022-08-17T00:07:29.243Z,1.50
2022-08-17T00:08:29.623Z,1.50
2022-08-17T00:09:29.469Z,1.60
2022-08-17T00:10:29.303Z,1.50
2022-08-17T00:11:29.464Z,1.40
2022-08-17T00:12:44.421Z,1.60
2022-08-17T00:13:30.183Z,1.50
2022-08-17T00:14:29.348Z,1.60
2022-08-17T00:15:29.310Z,1.60
2022-08-17T00:16:55.544Z,1.70
2022-08-17T00:17:30.425Z,1.80
2022-08-17T00:19:02.183Z,1.80
2022-08-17T00:19:30.185Z,1.70
2022-08-17T00:20:32.034Z,1.60
2022-08-17T00:21:36.142Z,1.70
2022-08-17T00:22:33.778Z,1.60
2022-08-17T00:23:30.424Z,1.60
2022-08-17T00:24:30.058Z,1.70
2022-08-17T00:25:28.900Z,1.60
2022-08-17T00:26:43.162Z,1.60
2022-08-17T00:27:30.198Z,1.80
2022-08-17T00:28:28.826Z,1.80
2022-08-17T00:29:28.908Z,1.70
2022-08-17T00:30:28.979Z,1.80
2022-08-17T00:31:28.899Z,1.70
2022-08-17T00:33:13.602Z,1.40
2022-08-17T00:33:30.562Z,1.70
2022-08-17T00:34:51.100Z,1.60
2022-08-17T00:35:28.918Z,1.90
2022-08-17T00:36:29.045Z,2.00
2022-08-17T00:37:28.739Z,1.60
2022-08-17T00:38:29.300Z,1.70
2022-08-17T00:39:29.188Z,1.70
2022-08-17T00:40:44.586Z,1.80
2022-08-17T00:41:29.780Z,1.70
2022-08-17T00:42:31.097Z,1.70
2022-08-17T00:43:28.878Z,1.60
2022-08-17T00:44:30.391Z,1.90
2022-08-17T00:45:33.038Z,1.70
2022-08-17T00:46:28.662Z,1.70
2022-08-17T00:47:28.823Z,1.50
2022-08-17T00:48:29.253Z,1.70
2022-08-17T00:49:30.099Z,1.60
2022-08-17T00:50:28.660Z,1.60
2022-08-17T00:51:28.832Z,1.80
2022-08-17T00:52:28.660Z,1.70
2022-08-17T00:53:28.820Z,1.90
2022-08-17T00:54:28.741Z,1.70
2022-08-17T00:55:28.821Z,1.80
2022-08-17T00:56:28.992Z,1.80
2022-08-17T00:57:29.144Z,1.80
2022-08-17T00:58:35.939Z,1.90
2022-08-17T00:59:29.782Z,1.80
2022-08-17T01:00:28.703Z,1.90
2022-08-17T01:01:28.859Z,2.10
2022-08-17T01:02:28.504Z,1.90
2022-08-17T01:03:28.403Z,1.70
2022-08-17T01:04:28.662Z,1.70
2022-08-17T01:05:28.586Z,1.80
2022-08-17T01:06:28.704Z,1.80
2022-08-17T01:07:28.823Z,1.60
2022-08-17T01:08:28.662Z,1.80
2022-08-17T01:09:28.332Z,1.80
2022-08-17T01:10:59.551Z,1.70
2022-08-17T01:11:29.784Z,1.70
2022-08-17T01:12:28.382Z,1.80
2022-08-17T01:13:28.502Z,2.20
2022-08-17T01:14:29.344Z,2.00
2022-08-17T01:15:28.344Z,2.00
2022-08-17T01:16:28.375Z,1.80
2022-08-17T01:17:28.263Z,1.80
2022-08-17T01:18:28.353Z,1.80
2022-08-17T01:19:28.504Z,1.90
2022-08-17T01:20:28.663Z,1.90
2022-08-17T01:21:28.344Z,1.60
2022-08-17T01:22:28.184Z,1.90
2022-08-17T01:23:28.185Z,1.90
2022-08-17T01:24:28.343Z,1.70
2022-08-17T01:25:28.188Z,1.80
2022-08-17T01:26:28.134Z,2.00
2022-08-17T01:27:28.104Z,2.10
2022-08-17T01:28:33.482Z,1.90
2022-08-17T01:29:29.785Z,1.90
2022-08-17T01:30:58.136Z,2.10
2022-08-17T01:31:28.992Z,1.80
2022-08-17T01:32:28.384Z,2.00
2022-08-17T01:33:28.184Z,2.00
2022-08-17T01:34:43.553Z,1.80
2022-08-17T01:35:30.428Z,1.80
2022-08-17T01:36:28.028Z,2.00
2022-08-17T01:37:29.176Z,1.90
2022-08-17T01:38:28.344Z,1.90
2022-08-17T01:39:28.221Z,1.90
2022-08-17T01:40:28.338Z,2.10
2022-08-17T01:41:28.189Z,2.10
2022-08-17T01:42:28.117Z,1.90
2022-08-17T01:43:27.978Z,2.00
2022-08-17T01:44:28.349Z,2.10
2022-08-17T01:45:27.966Z,2.00
2022-08-17T01:46:28.029Z,1.90
2022-08-17T01:47:28.185Z,1.70
2022-08-17T01:48:28.028Z,2.10
2022-08-17T01:49:48.987Z,2.10
2022-08-17T01:50:28.018Z,2.10
2022-08-17T01:51:28.914Z,2.10
2022-08-17T01:52:28.025Z,2.00
2022-08-17T01:53:29.888Z,2.00
2022-08-17T01:54:27.708Z,2.10
2022-08-17T01:55:28.217Z,2.20
2022-08-17T01:56:28.018Z,2.10
2022-08-17T01:57:27.869Z,2.10
2022-08-17T01:58:27.783Z,2.00
2022-08-17T01:59:27.699Z,2.10
2022-08-17T02:00:27.854Z,2.10
2022-08-17T02:01:28.652Z,2.20
2022-08-17T02:02:30.331Z,2.00
2022-08-17T02:03:27.863Z,1.90
2022-08-17T02:04:27.940Z,2.30
2022-08-17T02:05:27.619Z,2.40
2022-08-17T02:06:28.470Z,2.50
2022-08-17T02:07:27.639Z,2.40
2022-08-17T02:08:37.268Z,2.10
2022-08-17T02:09:29.717Z,2.20
2022-08-17T02:10:33.750Z,2.10
2022-08-17T02:11:28.592Z,2.30
2022-08-17T02:12:37.887Z,2.00
2022-08-17T02:13:28.580Z,2.10
2022-08-17T02:14:29.942Z,2.20
2022-08-17T02:15:27.541Z,2.10
2022-08-17T02:16:27.701Z,2.40
2022-08-17T02:17:28.581Z,2.20
2022-08-17T02:18:27.701Z,2.20
2022-08-17T02:19:27.544Z,2.00
2022-08-17T02:20:41.965Z,2.20
2022-08-17T02:21:28.502Z,2.20
2022-08-17T02:22:28.033Z,2.20
2022-08-17T02:23:27.324Z,2.40
2022-08-17T02:24:58.600Z,2.30
2022-08-17T02:25:28.824Z,2.20
2022-08-17T02:26:27.391Z,2.20
2022-08-17T02:27:27.547Z,2.30
2022-08-17T02:28:27.704Z,2.30
2022-08-17T02:29:27.324Z,2.30
2022-08-17T02:30:59.954Z,2.50
2022-08-17T02:31:29.472Z,2.30
2022-08-17T02:32:27.815Z,2.20
2022-08-17T02:33:42.009Z,2.40
2022-08-17T02:34:28.374Z,2.50
2022-08-17T02:35:27.308Z,2.40
2022-08-17T02:36:27.580Z,2.30
2022-08-17T02:37:27.556Z,2.40
2022-08-17T02:38:27.704Z,2.40
2022-08-17T02:39:27.331Z,2.30
2022-08-17T02:40:36.158Z,2.30
2022-08-17T02:41:28.184Z,2.50
2022-08-17T02:42:28.378Z,2.30
2022-08-17T02:43:27.386Z,2.40
2022-08-17T02:44:35.508Z,2.40
2022-08-17T02:45:28.187Z,2.40
2022-08-17T02:46:27.388Z,2.30
2022-08-17T02:47:27.063Z,2.40
2022-08-17T02:48:30.871Z,2.60
2022-08-17T02:49:26.999Z,2.30
2022-08-17T02:50:27.422Z,2.50
2022-08-17T02:51:27.225Z,2.90
2022-08-17T02:52:43.601Z,2.50
2022-08-17T02:53:27.956Z,2.50
2022-08-17T02:54:41.509Z,2.50
2022-08-17T02:55:28.183Z,2.60
2022-08-17T02:56:27.224Z,2.60
2022-08-17T02:57:26.986Z,2.70
2022-08-17T02:58:34.612Z,2.60
2022-08-17T02:59:28.016Z,2.60
2022-08-17T03:00:27.386Z,2.70
2022-08-17T03:01:26.884Z,2.40
2022-08-17T03:02:26.951Z,2.50
2022-08-17T03:03:26.903Z,2.60
2022-08-17T03:04:48.104Z,2.40
2022-08-17T03:05:26.899Z,2.50
2022-08-17T03:06:26.766Z,2.60
2022-08-17T03:07:26.906Z,2.40
2022-08-17T03:08:26.745Z,2.60
2022-08-17T03:09:27.228Z,2.70
2022-08-17T03:10:26.913Z,2.70
2022-08-17T03:11:29.624Z,2.70
2022-08-17T03:12:26.748Z,2.60
2022-08-17T03:13:27.904Z,2.70
2022-08-17T03:14:26.648Z,2.70
2022-08-17T03:15:26.946Z,2.60
2022-08-17T03:16:26.899Z,2.60
2022-08-17T03:17:47.861Z,2.60
2022-08-17T03:18:26.588Z,2.40
2022-08-17T03:19:26.898Z,2.80
2022-08-17T03:20:27.099Z,2.30
2022-08-17T03:21:26.668Z,2.50
2022-08-17T03:22:36.263Z,2.60
2022-08-17T03:23:29.671Z,2.30
2022-08-17T03:24:28.931Z,2.30
2022-08-17T03:25:26.906Z,2.50
2022-08-17T03:26:29.615Z,2.60
2022-08-17T03:27:26.905Z,2.80
2022-08-17T03:28:26.571Z,2.60
2022-08-17T03:29:26.899Z,2.60
2022-08-17T03:30:26.743Z,2.50
2022-08-17T03:31:26.580Z,2.50
2022-08-17T03:32:26.499Z,2.60
2022-08-17T03:33:26.983Z,2.50
2022-08-17T03:34:26.503Z,2.70
2022-08-17T03:35:26.911Z,2.80
2022-08-17T03:36:26.421Z,2.60
2022-08-17T03:37:26.581Z,2.80
2022-08-17T03:38:26.421Z,2.70
2022-08-17T03:39:26.721Z,2.70
2022-08-17T03:40:55.317Z,2.80
2022-08-17T03:41:27.310Z,2.40
2022-08-17T03:42:32.413Z,2.40
2022-08-17T03:43:27.300Z,2.40
2022-08-17T03:44:26.420Z,2.60
2022-08-17T03:45:26.262Z,2.40
2022-08-17T03:46:34.198Z,2.70
2022-08-17T03:47:27.235Z,2.50
2022-08-17T03:48:26.462Z,2.70
2022-08-17T03:49:26.435Z,2.50
2022-08-17T03:50:26.291Z,2.50
2022-08-17T03:51:26.263Z,2.50
2022-08-17T03:52:27.161Z,2.50
2022-08-17T03:53:26.175Z,2.60
2022-08-17T03:54:26.183Z,2.40
2022-08-17T03:55:32.925Z,2.40
2022-08-17T03:56:27.255Z,2.60
2022-08-17T03:57:26.721Z,2.50
2022-08-17T03:58:26.460Z,2.50
2022-08-17T03:59:26.587Z,2.60
2022-08-17T04:00:26.103Z,2.60
2022-08-17T04:01:27.356Z,2.50
2022-08-17T04:02:26.422Z,2.50
2022-08-17T04:03:27.067Z,2.80
2022-08-17T04:04:27.769Z,2.70
2022-08-17T04:05:26.306Z,2.40
2022-08-17T04:06:26.274Z,2.70
2022-08-17T04:07:26.270Z,2.90
2022-08-17T04:08:26.106Z,2.50
2022-08-17T04:09:27.224Z,2.70
2022-08-17T04:10:26.569Z,2.50
2022-08-17T04:11:26.204Z,2.50
2022-08-17T04:12:26.103Z,2.60
2022-08-17T04:13:25.945Z,2.60
2022-08-17T04:14:25.925Z,2.70
2022-08-17T04:15:25.986Z,2.80
2022-08-17T04:16:25.865Z,2.40
2022-08-17T04:17:25.991Z,2.60
2022-08-17T04:18:25.866Z,2.40
2022-08-17T04:19:26.596Z,2.50
2022-08-17T04:20:25.944Z,2.50
2022-08-17T04:21:26.105Z,2.40
2022-08-17T04:22:31.818Z,2.80
2022-08-17T04:23:26.743Z,2.50
2022-08-17T04:24:26.427Z,2.50
2022-08-17T04:25:25.945Z,2.60
2022-08-17T04:26:53.156Z,2.70
2022-08-17T04:27:26.913Z,2.40
2022-08-17T04:28:25.783Z,2.70
2022-08-17T04:29:25.979Z,2.50
2022-08-17T04:30:26.745Z,2.50
2022-08-17T04:31:25.988Z,2.50
2022-08-17T04:33:04.895Z,2.50
2022-08-17T04:33:26.922Z,2.60
2022-08-17T04:34:26.104Z,2.80
2022-08-17T04:35:25.945Z,2.50
2022-08-17T04:36:25.558Z,2.70
2022-08-17T04:37:26.267Z,2.60
2022-08-17T04:38:25.608Z,2.60
2022-08-17T04:39:27.317Z,2.70
2022-08-17T04:40:27.163Z,2.30
2022-08-17T04:41:25.664Z,2.60
2022-08-17T04:42:25.605Z,2.40
2022-08-17T04:43:25.617Z,2.30
2022-08-17T04:44:36.862Z,2.80
2022-08-17T04:45:26.659Z,2.50
2022-08-17T04:46:26.517Z,2.50
2022-08-17T04:47:26.267Z,2.70
2022-08-17T04:48:33.388Z,2.40
2022-08-17T04:49:26.420Z,2.90
2022-08-17T04:50:25.692Z,2.50
2022-08-17T04:51:25.371Z,2.50
2022-08-17T04:52:43.056Z,2.70
2022-08-17T04:53:28.821Z,2.40
2022-08-17T04:54:25.464Z,2.30
2022-08-17T04:55:27.631Z,2.70
2022-08-17T04:56:25.303Z,2.70
2022-08-17T04:57:25.669Z,2.30
2022-08-17T04:58:25.784Z,2.90
2022-08-17T04:59:25.622Z,2.50
2022-08-17T05:00:25.263Z,2.40
2022-08-17T05:01:25.657Z,2.60
2022-08-17T05:02:25.230Z,2.30
2022-08-17T05:03:25.622Z,2.80
2022-08-17T05:04:34.539Z,2.80
2022-08-17T05:05:26.596Z,2.50
2022-08-17T05:06:25.389Z,2.50
2022-08-17T05:07:28.370Z,2.50
2022-08-17T05:08:26.420Z,2.20
2022-08-17T05:09:25.302Z,2.50
2022-08-17T05:10:25.232Z,2.10
2022-08-17T05:11:25.300Z,2.50
2022-08-17T05:12:25.301Z,2.60
2022-08-17T05:13:25.303Z,2.90
2022-08-17T05:14:33.639Z,2.40
2022-08-17T05:15:26.085Z,2.50
2022-08-17T05:16:25.413Z,2.30
2022-08-17T05:17:25.301Z,2.40
2022-08-17T05:18:25.794Z,2.70
2022-08-17T05:19:25.064Z,2.50
2022-08-17T05:20:26.181Z,2.60
2022-08-17T05:21:25.312Z,2.40
2022-08-17T05:22:25.462Z,2.30
2022-08-17T05:23:24.984Z,2.30
2022-08-17T05:24:38.713Z,2.50
2022-08-17T05:25:26.187Z,2.70
2022-08-17T05:26:26.350Z,2.50
2022-08-17T05:27:30.809Z,2.50
2022-08-17T05:28:27.360Z,2.60
2022-08-17T05:29:35.633Z,2.60
2022-08-17T05:30:25.854Z,2.60
2022-08-17T05:31:27.543Z,2.50
2022-08-17T05:32:37.212Z,2.50
2022-08-17T05:33:25.948Z,2.30
2022-08-17T05:34:25.065Z,2.60
2022-08-17T05:35:25.066Z,2.70
2022-08-17T05:36:42.047Z,2.70
2022-08-17T05:37:26.035Z,2.50
2022-08-17T05:38:25.893Z,2.40
2022-08-17T05:39:24.821Z,2.20
2022-08-17T05:40:25.156Z,2.70
2022-08-17T05:41:24.984Z,2.60
2022-08-17T05:42:25.145Z,2.60
2022-08-17T05:43:24.987Z,2.50
2022-08-17T05:44:24.825Z,2.40
2022-08-17T05:45:54.246Z,2.50
2022-08-17T05:46:25.934Z,2.40
2022-08-17T05:47:25.305Z,2.40
2022-08-17T05:48:35.429Z,2.40
2022-08-17T05:49:25.943Z,2.30
2022-08-17T05:50:27.159Z,2.40
2022-08-17T05:51:25.946Z,2.40
2022-08-17T05:52:24.665Z,2.20
2022-08-17T05:53:24.587Z,2.40
2022-08-17T05:54:24.866Z,2.20
2022-08-17T05:55:24.991Z,2.30
2022-08-17T05:56:30.036Z,2.30
2022-08-17T05:57:25.791Z,2.20
2022-08-17T05:58:24.823Z,2.40
2022-08-17T05:59:24.672Z,2.10
2022-08-17T06:00:30.304Z,2.10
2022-08-17T06:01:25.499Z,2.30
2022-08-17T06:02:32.501Z,2.10
2022-08-17T06:03:24.417Z,2.30
2022-08-17T06:04:24.859Z,2.50
2022-08-17T06:05:24.425Z,2.40
2022-08-17T06:06:25.322Z,3.00
2022-08-17T06:07:25.626Z,2.10
2022-08-17T06:08:24.905Z,2.40
2022-08-17T06:09:28.921Z,2.40
2022-08-17T06:10:25.547Z,2.30
2022-08-17T06:11:24.978Z,2.00
2022-08-17T06:12:24.826Z,2.30
2022-08-17T06:13:24.665Z,2.20
2022-08-17T06:14:24.349Z,2.10
2022-08-17T06:15:25.672Z,2.20
2022-08-17T06:16:32.842Z,2.30
2022-08-17T06:17:25.460Z,1.90
2022-08-17T06:18:24.500Z,2.00
2022-08-17T06:19:24.341Z,2.30
2022-08-17T06:20:26.741Z,2.30
2022-08-17T06:21:30.494Z,2.00
2022-08-17T06:22:25.181Z,2.00
2022-08-17T06:24:54.916Z,2.30
2022-08-17T06:25:33.702Z,2.10
2022-08-17T06:26:37.288Z,2.30
2022-08-17T06:27:34.674Z,2.40
2022-08-17T06:28:33.602Z,2.20
2022-08-17T06:29:33.622Z,2.10
2022-08-17T06:30:58.629Z,2.10
2022-08-17T06:31:34.502Z,2.10
2022-08-17T06:32:33.834Z,2.10
2022-08-17T06:33:33.622Z,2.00
2022-08-17T06:34:33.784Z,2.00
2022-08-17T06:35:34.136Z,2.10
2022-08-17T06:36:33.625Z,2.30
2022-08-17T06:37:33.363Z,2.20
2022-08-17T06:38:36.959Z,2.20
2022-08-17T06:39:33.385Z,2.30
2022-08-17T06:40:35.436Z,2.10
2022-08-17T06:41:33.334Z,1.80
2022-08-17T06:43:00.818Z,1.70
2022-08-17T06:43:34.903Z,2.20
2022-08-17T06:44:43.211Z,1.90
2022-08-17T06:45:34.343Z,2.00
2022-08-17T06:46:33.304Z,1.70
2022-08-17T06:47:33.305Z,2.10
2022-08-17T06:48:34.455Z,2.00
2022-08-17T06:49:33.172Z,1.90
2022-08-17T06:50:33.822Z,2.00
2022-08-17T06:51:33.385Z,1.80
2022-08-17T06:52:45.726Z,2.10
2022-08-17T06:53:34.156Z,1.90
2022-08-17T06:54:34.464Z,2.00
2022-08-17T06:55:37.852Z,2.00
2022-08-17T06:56:53.569Z,2.10
2022-08-17T06:57:34.588Z,2.20
2022-08-17T06:58:33.786Z,2.00
2022-08-17T06:59:47.163Z,2.20
2022-08-17T07:00:34.462Z,2.00
2022-08-17T07:01:33.674Z,2.00
2022-08-17T07:02:51.537Z,2.00
2022-08-17T07:03:34.097Z,1.70
2022-08-17T07:04:33.466Z,1.90
2022-08-17T07:05:33.186Z,2.90
2022-08-17T07:06:33.155Z,1.90
2022-08-17T07:07:34.266Z,2.10
2022-08-17T07:08:35.315Z,2.10
2022-08-17T07:09:36.089Z,2.10
2022-08-17T07:10:34.967Z,1.90
2022-08-17T07:11:35.311Z,2.10
2022-08-17T07:12:36.411Z,2.40
2022-08-17T07:13:34.812Z,1.70
2022-08-17T07:14:36.945Z,1.90
2022-08-17T07:15:32.861Z,1.90
2022-08-17T07:16:32.921Z,2.00
2022-08-17T07:17:47.588Z,2.10
2022-08-17T07:18:34.118Z,2.20
2022-08-17T07:19:33.023Z,2.20
2022-08-17T07:20:33.143Z,2.00
2022-08-17T07:21:32.820Z,2.00
2022-08-17T07:22:50.563Z,1.90
2022-08-17T07:23:33.731Z,2.20
2022-08-17T07:24:32.828Z,2.10
2022-08-17T07:25:32.822Z,2.10
2022-08-17T07:26:32.820Z,2.20
2022-08-17T07:27:33.948Z,2.10
2022-08-17T07:28:33.151Z,2.10
2022-08-17T07:29:32.981Z,2.20
2022-08-17T07:30:45.604Z,2.20
2022-08-17T07:31:33.784Z,2.00
2022-08-17T07:32:32.671Z,2.00
2022-08-17T07:33:32.997Z,2.20
2022-08-17T07:34:32.821Z,2.30
2022-08-17T07:35:40.791Z,2.00
2022-08-17T07:36:33.811Z,2.10
2022-08-17T07:37:32.663Z,2.30
2022-08-17T07:38:32.513Z,2.00
2022-08-17T07:39:32.714Z,2.20
2022-08-17T07:40:32.535Z,1.80
2022-08-17T07:41:53.505Z,2.10
2022-08-17T07:42:34.341Z,2.10
2022-08-17T07:43:32.444Z,1.90
2022-08-17T07:44:32.824Z,1.80
2022-08-17T07:45:32.425Z,2.10
2022-08-17T07:46:32.503Z,2.10
2022-08-17T07:47:32.421Z,2.20
2022-08-17T07:48:32.503Z,1.90
2022-08-17T07:49:32.666Z,2.00
2022-08-17T07:50:32.503Z,2.30
2022-08-17T07:51:32.355Z,2.40
2022-08-17T07:52:51.910Z,1.90
2022-08-17T07:53:33.625Z,1.90
2022-08-17T07:54:32.346Z,2.20
2022-08-17T07:55:32.425Z,2.40
2022-08-17T07:56:34.500Z,2.30
2022-08-17T07:57:32.664Z,2.20
2022-08-17T07:58:33.785Z,2.10
2022-08-17T07:59:33.369Z,2.10
2022-08-17T08:00:33.013Z,1.50
2022-08-17T08:01:41.582Z,2.20
2022-08-17T08:02:33.839Z,2.10
2022-08-17T08:03:32.344Z,2.20
2022-08-17T08:05:49.879Z,2.10
2022-08-17T08:06:33.465Z,2.00
2022-08-17T08:07:32.664Z,2.40
2022-08-17T08:08:32.316Z,1.90
2022-08-17T08:09:32.117Z,1.70
2022-08-17T08:10:32.522Z,2.30
2022-08-17T08:11:32.112Z,2.20
2022-08-17T08:12:33.600Z,1.90
2022-08-17T08:13:32.424Z,1.60
2022-08-17T08:14:33.147Z,1.60
2022-08-17T08:15:32.113Z,1.80
2022-08-17T08:16:32.499Z,1.40
2022-08-17T08:17:31.992Z,1.70
2022-08-17T08:18:45.927Z,1.50
2022-08-17T08:19:33.120Z,1.60
2022-08-17T08:20:51.379Z,1.70
2022-08-17T08:21:32.980Z,1.50
2022-08-17T08:22:33.021Z,1.50
2022-08-17T08:23:32.026Z,1.40
2022-08-17T08:24:32.184Z,2.00
2022-08-17T08:25:32.022Z,1.80
2022-08-17T08:26:32.180Z,1.50
2022-08-17T08:27:32.181Z,1.50
2022-08-17T08:28:34.189Z,1.60
2022-08-17T08:29:38.314Z,1.80
2022-08-17T08:30:33.101Z,1.40
2022-08-17T08:31:31.862Z,1.30
2022-08-17T08:32:31.782Z,1.50
2022-08-17T08:33:31.946Z,1.50
2022-08-17T08:34:59.043Z,1.60
2022-08-17T08:35:33.302Z,1.30
2022-08-17T08:37:14.526Z,1.30
2022-08-17T08:37:37.885Z,1.50
2022-08-17T08:38:32.986Z,1.90
2022-08-17T08:39:32.051Z,2.40
2022-08-17T08:40:31.722Z,2.40
2022-08-17T08:41:32.862Z,2.80
2022-08-17T08:42:31.866Z,2.40
2022-08-17T08:43:32.047Z,2.20
2022-08-17T08:45:00.434Z,1.90
2022-08-17T08:45:32.622Z,1.80
2022-08-17T08:46:32.863Z,1.70
2022-08-17T08:47:31.787Z,1.60
2022-08-17T08:48:56.627Z,1.60
2022-08-17T08:50:02.037Z,2.30
2022-08-17T08:50:38.007Z,2.50
2022-08-17T08:51:32.542Z,2.10
2022-08-17T08:52:31.722Z,2.30
2022-08-17T08:53:31.545Z,1.80
2022-08-17T08:54:31.865Z,2.30
2022-08-17T08:55:31.877Z,1.60
2022-08-17T08:56:32.856Z,1.70
2022-08-17T08:57:34.344Z,1.50
2022-08-17T08:58:41.452Z,1.60
2022-08-17T08:59:32.437Z,1.60
2022-08-17T09:00:31.559Z,1.60
2022-08-17T09:01:31.562Z,1.70
2022-08-17T09:02:34.857Z,1.80
2022-08-17T09:03:51.499Z,1.80
2022-08-17T09:04:44.949Z,1.80
2022-08-17T09:05:32.837Z,1.50
2022-08-17T09:06:38.875Z,1.80
2022-08-17T09:07:32.510Z,1.80
2022-08-17T09:08:32.058Z,1.60
2022-08-17T09:09:31.439Z,1.70
2022-08-17T09:10:31.542Z,1.70
2022-08-17T09:11:31.700Z,1.70
2022-08-17T09:12:32.773Z,1.80
2022-08-17T09:13:31.380Z,1.90
2022-08-17T09:14:32.392Z,1.60
2022-08-17T09:15:32.220Z,1.80
2022-08-17T09:16:31.580Z,1.60
2022-08-17T09:17:31.558Z,2.00
2022-08-17T09:18:59.112Z,1.70
2022-08-17T09:19:32.661Z,1.60
2022-08-17T09:20:31.342Z,1.60
2022-08-17T09:21:33.925Z,1.80
2022-08-17T09:22:31.713Z,1.60
2022-08-17T09:23:31.224Z,2.00
2022-08-17T09:24:31.222Z,1.80
2022-08-17T09:25:31.711Z,1.50
2022-08-17T09:26:31.224Z,1.70
2022-08-17T09:27:31.255Z,1.70
2022-08-17T09:28:31.302Z,1.70
2022-08-17T09:29:31.169Z,1.60
2022-08-17T09:30:31.302Z,1.60
2022-08-17T09:31:33.492Z,2.20
2022-08-17T09:32:31.127Z,1.70
2022-08-17T09:33:31.383Z,1.60
2022-08-17T09:34:32.068Z,1.70
2022-08-17T09:35:36.801Z,1.70
2022-08-17T09:36:32.023Z,1.70
2022-08-17T09:37:31.385Z,1.80
2022-08-17T09:38:32.643Z,1.60
2022-08-17T09:39:31.115Z,1.70
2022-08-17T09:40:30.984Z,1.80
2022-08-17T09:41:31.255Z,2.10
2022-08-17T09:42:30.905Z,1.70
2022-08-17T09:43:32.670Z,1.60
2022-08-17T09:44:30.985Z,1.70
2022-08-17T09:45:33.085Z,1.80
2022-08-17T09:46:30.926Z,1.70
2022-08-17T09:47:30.905Z,1.60
2022-08-17T09:48:31.065Z,1.90
2022-08-17T09:49:30.941Z,1.60
2022-08-17T09:51:03.553Z,2.00
2022-08-17T09:51:32.025Z,1.90
2022-08-17T09:52:30.908Z,2.00
2022-08-17T09:53:31.870Z,1.90
2022-08-17T09:54:39.840Z,1.90
2022-08-17T09:55:31.788Z,1.90
2022-08-17T09:56:31.895Z,1.90
2022-08-17T09:57:32.029Z,1.70
2022-08-17T09:58:30.943Z,1.80
2022-08-17T09:59:36.539Z,1.60
2022-08-17T10:00:31.865Z,1.80
2022-08-17T10:01:31.145Z,1.70
2022-08-17T10:02:30.599Z,1.70
2022-08-17T10:03:30.739Z,1.90
2022-08-17T10:04:30.581Z,1.90
2022-08-17T10:05:31.085Z,1.80
2022-08-17T10:06:30.746Z,1.60
2022-08-17T10:07:31.060Z,1.70
2022-08-17T10:08:30.899Z,1.70
2022-08-17T10:09:30.650Z,1.70
2022-08-17T10:10:32.323Z,1.70
2022-08-17T10:11:33.714Z,1.90
2022-08-17T10:12:30.601Z,1.70
2022-08-17T10:13:30.741Z,1.50
2022-08-17T10:14:37.929Z,1.60
2022-08-17T10:15:31.471Z,1.80
2022-08-17T10:16:31.862Z,1.90
2022-08-17T10:17:30.742Z,1.70
2022-08-17T10:18:33.196Z,1.70
2022-08-17T10:19:30.445Z,1.80
2022-08-17T10:20:30.423Z,1.70
2022-08-17T10:21:30.742Z,1.70
2022-08-17T10:22:34.653Z,2.00
2022-08-17T10:23:30.516Z,1.60
2022-08-17T10:24:30.586Z,1.60
2022-08-17T10:25:53.673Z,1.90
2022-08-17T10:26:40.581Z,1.70
2022-08-17T10:27:31.384Z,1.40
2022-08-17T10:28:30.652Z,1.90
2022-08-17T10:29:30.264Z,1.80
2022-08-17T10:30:31.383Z,1.80
2022-08-17T10:31:35.367Z,1.80
2022-08-17T10:32:31.547Z,1.70
2022-08-17T10:33:30.425Z,1.60
2022-08-17T10:34:30.193Z,1.60
2022-08-17T10:35:31.704Z,1.70
2022-08-17T10:36:30.675Z,1.60
2022-08-17T10:37:30.285Z,1.70
2022-08-17T10:38:30.623Z,1.60
2022-08-17T10:39:30.467Z,1.70
2022-08-17T10:40:30.345Z,1.80
2022-08-17T10:41:30.110Z,1.60
2022-08-17T10:42:32.690Z,1.70
2022-08-17T10:43:30.745Z,1.80
2022-08-17T10:44:37.146Z,1.70
2022-08-17T10:45:31.267Z,1.80
2022-08-17T10:46:31.810Z,1.70
2022-08-17T10:47:42.287Z,1.40
2022-08-17T10:48:31.367Z,1.90
2022-08-17T10:49:30.219Z,1.80
2022-08-17T10:50:30.028Z,1.70
2022-08-17T10:51:31.513Z,1.90
2022-08-17T10:52:30.019Z,1.70
2022-08-17T10:53:30.421Z,1.80
2022-08-17T10:54:30.270Z,1.70
2022-08-17T10:55:31.060Z,1.70
2022-08-17T10:56:29.948Z,1.90
2022-08-17T10:57:30.106Z,1.70
2022-08-17T10:58:30.265Z,1.60
2022-08-17T10:59:30.419Z,1.70
2022-08-17T11:00:29.859Z,1.60
2022-08-17T11:01:30.189Z,1.60
2022-08-17T11:02:29.956Z,1.40
2022-08-17T11:03:30.050Z,1.70
2022-08-17T11:04:29.783Z,1.70
2022-08-17T11:05:30.580Z,1.50
2022-08-17T11:06:29.761Z,1.60
2022-08-17T11:07:30.260Z,1.70
2022-08-17T11:08:29.730Z,1.70
2022-08-17T11:09:51.222Z,1.60
2022-08-17T11:10:29.746Z,1.50
2022-08-17T11:11:30.049Z,1.80
2022-08-17T11:12:29.670Z,1.60
2022-08-17T11:13:29.792Z,1.80
2022-08-17T11:14:29.942Z,1.50
2022-08-17T11:15:30.897Z,1.80
2022-08-17T11:16:29.837Z,1.80
2022-08-17T11:17:29.782Z,1.50
2022-08-17T11:18:29.723Z,1.50
2022-08-17T11:19:30.795Z,1.80
2022-08-17T11:20:29.942Z,1.60
2022-08-17T11:21:30.743Z,1.60
2022-08-17T11:22:33.375Z,1.70
2022-08-17T11:23:29.626Z,1.60
2022-08-17T11:24:29.946Z,1.80
2022-08-17T11:25:29.786Z,1.80
2022-08-17T11:26:29.943Z,1.70
2022-08-17T11:27:29.587Z,1.70
2022-08-17T11:28:29.945Z,1.60
2022-08-17T11:29:30.182Z,1.90
2022-08-17T11:30:29.623Z,1.60
2022-08-17T11:31:38.680Z,1.60
2022-08-17T11:32:30.423Z,1.90
2022-08-17T11:33:50.516Z,1.60
2022-08-17T11:34:29.387Z,1.70
2022-08-17T11:35:30.746Z,1.70
2022-08-17T11:36:29.366Z,1.60
2022-08-17T11:37:29.776Z,1.80
2022-08-17T11:38:29.358Z,1.80
2022-08-17T11:39:29.438Z,1.60
2022-08-17T11:40:29.388Z,1.80
2022-08-17T11:41:29.473Z,1.70
2022-08-17T11:42:29.396Z,1.90
2022-08-17T11:43:29.459Z,1.70
2022-08-17T11:44:29.556Z,1.70
2022-08-17T11:45:32.050Z,1.80
2022-08-17T11:46:29.299Z,1.90
2022-08-17T11:47:29.469Z,1.80
2022-08-17T11:48:29.522Z,1.80
2022-08-17T11:49:31.492Z,1.70
2022-08-17T11:50:29.459Z,1.90
2022-08-17T11:51:30.308Z,1.80
2022-08-17T11:52:29.623Z,2.00
2022-08-17T11:53:29.459Z,1.90
2022-08-17T11:54:34.151Z,1.70
2022-08-17T11:55:41.751Z,1.80
2022-08-17T11:56:30.580Z,1.80
2022-08-17T11:57:30.457Z,1.70
2022-08-17T11:58:29.139Z,1.80
2022-08-17T11:59:29.310Z,1.90
2022-08-17T12:00:29.062Z,1.70
2022-08-17T12:01:31.700Z,1.80
2022-08-17T12:02:29.843Z,1.80
2022-08-17T12:03:29.175Z,1.80
2022-08-17T12:04:29.309Z,1.90
2022-08-17T12:05:51.543Z,1.50
2022-08-17T12:06:30.378Z,1.80
2022-08-17T12:07:29.462Z,1.70
2022-08-17T12:08:28.982Z,1.70
2022-08-17T12:09:28.982Z,1.80
2022-08-17T12:10:28.983Z,1.80
2022-08-17T12:11:58.767Z,1.60
2022-08-17T12:12:30.262Z,1.80
2022-08-17T12:13:33.964Z,1.70
2022-08-17T12:15:05.730Z,1.80
2022-08-17T12:15:29.873Z,1.70
2022-08-17T12:16:28.825Z,1.70
2022-08-17T12:17:41.471Z,1.70
2022-08-17T12:18:29.946Z,1.70
2022-08-17T12:19:30.105Z,1.80
2022-08-17T12:20:28.785Z,1.80
2022-08-17T12:21:29.475Z,1.60
2022-08-17T12:22:28.982Z,1.80
2022-08-17T12:23:28.836Z,1.70
2022-08-17T12:24:28.744Z,1.60
2022-08-17T12:25:29.457Z,1.80
2022-08-17T12:26:28.747Z,1.70
2022-08-17T12:27:46.174Z,1.60
2022-08-17T12:28:30.272Z,1.90
2022-08-17T12:29:35.825Z,1.60
2022-08-17T12:30:29.937Z,1.60
2022-08-17T12:31:31.067Z,1.90
2022-08-17T12:32:28.659Z,1.60
2022-08-17T12:33:29.198Z,1.60
2022-08-17T12:34:28.749Z,1.50
2022-08-17T12:35:29.780Z,1.70
2022-08-17T12:36:28.583Z,1.60
2022-08-17T12:37:28.825Z,1.50
2022-08-17T12:38:32.421Z,1.70
2022-08-17T12:39:29.709Z,1.60
2022-08-17T12:40:29.618Z,1.80
2022-08-17T12:41:28.999Z,1.80
2022-08-17T12:42:28.758Z,1.60
2022-08-17T12:43:29.143Z,1.70
2022-08-17T12:44:28.664Z,1.70
2022-08-17T12:45:28.582Z,2.00
2022-08-17T12:46:28.700Z,1.50
2022-08-17T12:47:29.780Z,1.60
2022-08-17T12:48:28.660Z,1.80
2022-08-17T12:49:28.552Z,1.60
2022-08-17T12:50:30.233Z,1.60
2022-08-17T12:51:29.394Z,1.60
2022-08-17T12:52:28.434Z,1.60
2022-08-17T12:53:29.383Z,1.50
2022-08-17T12:54:28.662Z,1.50
2022-08-17T12:55:33.753Z,1.40
2022-08-17T12:56:29.462Z,1.50
2022-08-17T12:57:30.902Z,1.80
2022-08-17T12:58:28.424Z,1.60
2022-08-17T12:59:30.247Z,1.50
2022-08-17T13:00:28.423Z,1.60
2022-08-17T13:01:49.487Z,1.50
2022-08-17T13:02:28.428Z,1.70
2022-08-17T13:03:31.790Z,1.70
2022-08-17T13:04:29.639Z,1.60
2022-08-17T13:05:28.511Z,1.60
2022-08-17T13:06:28.665Z,1.70
2022-08-17T13:07:28.588Z,1.50
2022-08-17T13:08:28.344Z,1.70
2022-08-17T13:09:36.051Z,1.40
2022-08-17T13:10:32.740Z,1.40
2022-08-17T13:11:28.182Z,1.50
2022-08-17T13:12:29.622Z,1.60
2022-08-17T13:13:28.177Z,1.60
2022-08-17T13:14:28.345Z,1.60
2022-08-17T13:15:28.187Z,1.60
2022-08-17T13:16:28.225Z,1.70
2022-08-17T13:17:28.183Z,1.50
2022-08-17T13:18:28.336Z,1.50
2022-08-17T13:19:29.783Z,1.50
2022-08-17T13:20:29.307Z,1.50